createdAt,value
2023-01-13T00:01:27.545Z,99.90
2023-01-13T00:03:56.513Z,99.90
2023-01-13T00:06:32.287Z,99.90
2023-01-13T00:09:00.148Z,99.90
2023-01-13T00:11:41.496Z,99.90
2023-01-13T00:14:09.039Z,99.90
2023-01-13T00:16:39.010Z,99.90
2023-01-13T00:19:06.516Z,99.90
2023-01-13T00:21:34.300Z,99.90
2023-01-13T00:24:02.110Z,99.90
2023-01-13T00:26:34.407Z,99.90
2023-01-13T00:29:02.916Z,99.90
2023-01-13T00:31:31.401Z,99.90
2023-01-13T00:34:00.961Z,99.90
2023-01-13T00:36:29.533Z,99.90
2023-01-13T00:39:00.544Z,99.90
2023-01-13T00:41:28.256Z,99.90
2023-01-13T00:43:55.973Z,99.90
2023-01-13T00:46:24.173Z,99.90
2023-01-13T00:48:51.862Z,99.90
2023-01-13T00:51:21.751Z,99.90
2023-01-13T00:53:51.972Z,99.90
2023-01-13T00:56:38.392Z,99.90
2023-01-13T00:58:52.676Z,99.90
2023-01-13T01:01:23.532Z,99.90
2023-01-13T01:03:53.531Z,99.90
2023-01-13T01:06:24.569Z,99.90
2023-01-13T01:08:53.498Z,99.90
2023-01-13T01:11:24.101Z,99.90
2023-01-13T01:13:52.776Z,99.90
2023-01-13T01:16:23.169Z,99.90
2023-01-13T01:18:52.522Z,99.90
2023-01-13T01:21:21.477Z,99.90
2023-01-13T01:23:50.078Z,99.90
2023-01-13T01:26:20.454Z,99.90
2023-01-13T01:28:49.723Z,99.90
2023-01-13T01:31:21.057Z,99.90
2023-01-13T01:33:50.543Z,99.90
2023-01-13T01:36:20.486Z,99.90
2023-01-13T01:38:49.096Z,99.90
2023-01-13T01:41:20.167Z,99.90
2023-01-13T01:44:03.687Z,99.90
2023-01-13T01:46:43.162Z,99.90
2023-01-13T01:49:19.965Z,99.90
2023-01-13T01:51:52.137Z,99.90
2023-01-13T01:54:40.587Z,99.90
2023-01-13T01:57:12.631Z,99.90
2023-01-13T02:00:01.206Z,99.90
2023-01-13T02:02:31.029Z,99.90
2023-01-13T02:05:00.444Z,99.90
2023-01-13T02:07:33.693Z,99.90
2023-01-13T02:10:07.760Z,99.90
2023-01-13T02:12:36.369Z,99.90
2023-01-13T02:15:11.011Z,99.90
2023-01-13T02:17:48.036Z,99.90
2023-01-13T02:20:39.317Z,99.90
2023-01-13T02:23:38.202Z,99.90
2023-01-13T02:26:15.700Z,99.90
2023-01-13T02:29:17.970Z,99.90
2023-01-13T02:31:49.603Z,99.90
2023-01-13T02:34:41.340Z,99.90
2023-01-13T02:37:12.744Z,99.90
2023-01-13T02:40:02.086Z,99.90
2023-01-13T02:42:56.269Z,99.90
2023-01-13T02:45:35.636Z,99.90
2023-01-13T02:48:06.377Z,99.90
2023-01-13T02:50:43.921Z,99.90
2023-01-13T02:53:15.475Z,99.90
2023-01-13T02:55:50.198Z,99.90
2023-01-13T02:58:19.809Z,99.90
2023-01-13T03:00:49.636Z,99.90
2023-01-13T03:03:17.312Z,99.90
2023-01-13T03:05:48.177Z,99.90
2023-01-13T03:08:32.063Z,99.90
2023-01-13T03:11:06.642Z,99.90
2023-01-13T03:13:49.094Z,99.90
2023-01-13T03:16:32.903Z,99.90
2023-01-13T03:19:07.506Z,99.90
2023-01-13T03:21:41.725Z,99.90
2023-01-13T03:24:28.028Z,99.90
2023-01-13T03:27:02.357Z,99.90
2023-01-13T03:29:39.938Z,99.90
2023-01-13T03:32:29.927Z,99.90
2023-01-13T03:35:13.652Z,99.90
2023-01-13T03:37:44.871Z,99.90
2023-01-13T03:40:19.833Z,99.90
2023-01-13T03:43:09.252Z,99.90
2023-01-13T03:45:40.453Z,99.90
2023-01-13T03:48:12.183Z,99.90
2023-01-13T03:50:46.567Z,99.90
2023-01-13T03:53:33.079Z,99.90
2023-01-13T03:56:17.398Z,99.90
2023-01-13T03:59:07.077Z,99.90
2023-01-13T04:01:46.335Z,99.90
2023-01-13T04:04:24.280Z,99.90
2023-01-13T04:06:58.295Z,99.90
2023-01-13T04:09:39.092Z,99.90
2023-01-13T04:12:23.082Z,99.90
2023-01-13T04:14:51.947Z,99.90
2023-01-13T04:17:20.402Z,99.90
2023-01-13T04:19:48.156Z,99.90
2023-01-13T04:25:02.277Z,99.90
2023-01-13T04:27:30.290Z,99.90
2023-01-13T04:29:58.215Z,99.90
2023-01-13T04:32:25.754Z,99.90
2023-01-13T04:34:53.891Z,99.90
2023-01-13T04:37:22.017Z,99.90
2023-01-13T04:39:49.829Z,99.90
2023-01-13T04:42:17.351Z,99.90
2023-01-13T04:44:45.373Z,99.90
2023-01-13T04:47:14.120Z,99.90
2023-01-13T04:49:55.959Z,99.90
2023-01-13T04:52:30.471Z,99.90
2023-01-13T04:54:58.625Z,99.90
2023-01-13T04:57:26.445Z,99.90
2023-01-13T04:59:53.950Z,99.90
2023-01-13T05:02:22.049Z,99.90
2023-01-13T05:04:50.039Z,99.90
2023-01-13T05:07:17.968Z,99.90
2023-01-13T05:09:45.550Z,99.90
2023-01-13T05:12:33.889Z,99.90
2023-01-13T05:15:21.051Z,99.90
2023-01-13T05:17:49.077Z,99.90
2023-01-13T05:20:17.620Z,99.90
2023-01-13T05:23:06.980Z,99.90
2023-01-13T05:25:38.783Z,99.90
2023-01-13T05:28:07.259Z,99.90
2023-01-13T05:30:43.825Z,99.90
2023-01-13T05:33:14.001Z,99.90
2023-01-13T05:35:43.543Z,99.90
2023-01-13T05:38:34.576Z,99.90
2023-01-13T05:41:21.184Z,99.90
2023-01-13T05:43:49.313Z,99.90
2023-01-13T05:46:18.257Z,99.90
2023-01-13T05:48:45.708Z,99.90
2023-01-13T05:51:13.758Z,99.90
2023-01-13T05:53:45.990Z,99.90
2023-01-13T05:56:14.189Z,99.90
2023-01-13T05:58:42.357Z,99.90
2023-01-13T06:01:10.322Z,99.90
2023-01-13T06:03:38.753Z,99.90
2023-01-13T06:06:08.520Z,99.90
2023-01-13T06:08:38.662Z,99.90
2023-01-13T06:11:07.712Z,99.90
2023-01-13T06:13:35.601Z,99.90
2023-01-13T06:16:03.824Z,99.90
2023-01-13T06:18:31.754Z,99.90
2023-01-13T06:20:59.462Z,99.90
2023-01-13T06:23:27.715Z,99.90
2023-01-13T06:26:15.696Z,99.90
2023-01-13T06:28:44.018Z,99.90
2023-01-13T06:31:12.237Z,99.90
2023-01-13T06:33:44.415Z,99.90
2023-01-13T06:36:24.743Z,99.90
2023-01-13T06:38:56.172Z,99.90
2023-01-13T06:41:43.054Z,99.90
2023-01-13T06:44:24.258Z,99.90
2023-01-13T06:46:53.145Z,99.90
2023-01-13T06:49:21.834Z,99.90
2023-01-13T06:52:03.424Z,99.90
2023-01-13T06:54:31.399Z,99.90
2023-01-13T06:56:58.813Z,99.90
2023-01-13T06:59:26.781Z,99.90
2023-01-13T07:01:54.930Z,99.90
2023-01-13T07:04:23.752Z,99.90
2023-01-13T07:06:51.507Z,99.90
2023-01-13T07:09:19.517Z,99.90
2023-01-13T07:11:47.534Z,99.90
2023-01-13T07:14:34.360Z,99.90
2023-01-13T07:17:02.091Z,99.90
2023-01-13T07:19:29.879Z,99.90
2023-01-13T07:21:57.937Z,99.90
2023-01-13T07:24:28.269Z,99.90
2023-01-13T07:26:57.238Z,99.90
2023-01-13T07:29:25.441Z,99.90
2023-01-13T07:31:53.455Z,99.90
2023-01-13T07:34:21.176Z,99.90
2023-01-13T07:36:48.677Z,99.90
2023-01-13T07:39:16.733Z,99.90
2023-01-13T07:42:03.672Z,99.90
2023-01-13T07:44:31.305Z,99.90
2023-01-13T07:46:59.288Z,99.90
2023-01-13T07:49:27.211Z,99.90
2023-01-13T07:51:54.888Z,99.90
2023-01-13T07:54:39.122Z,99.90
2023-01-13T07:56:52.281Z,99.90
2023-01-13T07:59:21.868Z,99.90
2023-01-13T08:01:49.690Z,99.90
2023-01-13T08:04:17.296Z,99.90
2023-01-13T08:06:45.602Z,99.90
2023-01-13T08:09:21.244Z,99.90
2023-01-13T08:11:51.405Z,99.90
2023-01-13T08:14:18.887Z,99.90
2023-01-13T08:16:47.979Z,99.90
2023-01-13T08:19:16.041Z,99.90
2023-01-13T08:21:43.745Z,99.90
2023-01-13T08:24:12.902Z,99.90
2023-01-13T08:26:40.718Z,99.90
2023-01-13T08:29:27.936Z,99.90
2023-01-13T08:31:55.738Z,99.90
2023-01-13T08:34:23.373Z,99.90
2023-01-13T08:36:51.187Z,99.90
2023-01-13T08:39:19.746Z,99.90
2023-01-13T08:41:56.743Z,99.90
2023-01-13T08:44:30.172Z,99.90
2023-01-13T08:46:57.943Z,99.90
2023-01-13T08:49:29.901Z,99.90
2023-01-13T08:51:58.068Z,99.90
2023-01-13T08:54:25.547Z,99.90
2023-01-13T08:56:53.523Z,99.90
2023-01-13T08:59:21.725Z,99.90
2023-01-13T09:01:49.478Z,99.90
2023-01-13T09:04:20.899Z,99.90
2023-01-13T09:06:51.653Z,99.90
2023-01-13T09:09:20.436Z,99.90
2023-01-13T09:12:08.356Z,99.90
2023-01-13T09:14:37.640Z,99.90
2023-01-13T09:17:05.399Z,99.90
2023-01-13T09:19:32.927Z,99.90
2023-01-13T09:22:00.382Z,99.90
2023-01-13T09:24:37.172Z,99.90
2023-01-13T09:27:05.009Z,99.90
2023-01-13T09:29:32.856Z,99.90
2023-01-13T09:32:00.887Z,99.90
2023-01-13T09:34:47.089Z,99.90
2023-01-13T09:37:18.099Z,99.90
2023-01-13T09:39:46.744Z,99.90
2023-01-13T09:43:01.092Z,99.90
2023-01-13T09:45:35.800Z,99.90
2023-01-13T09:48:13.562Z,99.90
2023-01-13T09:50:51.173Z,99.90
2023-01-13T09:53:26.183Z,99.90
2023-01-13T09:56:13.808Z,99.90
2023-01-13T09:58:41.623Z,99.90
2023-01-13T10:01:34.380Z,99.90
2023-01-13T10:04:11.150Z,99.90
2023-01-13T10:06:43.029Z,99.90
2023-01-13T10:09:17.416Z,99.90
2023-01-13T10:12:07.942Z,99.90
2023-01-13T10:14:42.431Z,99.90
2023-01-13T10:17:14.870Z,99.90
2023-01-13T10:19:52.756Z,99.90
2023-01-13T10:22:33.806Z,99.90
2023-01-13T10:25:19.102Z,99.90
2023-01-13T10:27:50.153Z,99.90
2023-01-13T10:30:24.602Z,99.90
2023-01-13T10:33:01.541Z,99.90
2023-01-13T10:36:03.732Z,99.90
2023-01-13T10:38:49.319Z,99.90
2023-01-13T10:44:18.100Z,99.90
2023-01-13T10:46:54.979Z,99.90
2023-01-13T10:49:36.586Z,99.90
2023-01-13T10:52:07.167Z,99.90
2023-01-13T10:54:36.658Z,99.90
2023-01-13T10:57:17.091Z,99.90
2023-01-13T10:59:45.245Z,99.90
2023-01-13T11:02:30.369Z,99.90
2023-01-13T11:05:01.077Z,99.90
2023-01-13T11:07:39.031Z,99.90
2023-01-13T11:10:28.675Z,99.90
2023-01-13T11:13:05.567Z,99.90
2023-01-13T11:15:48.641Z,99.90
2023-01-13T11:18:40.503Z,99.90
2023-01-13T11:21:27.589Z,99.90
2023-01-13T11:23:59.122Z,99.90
2023-01-13T11:26:30.314Z,99.90
2023-01-13T11:29:35.755Z,99.90
2023-01-13T11:32:20.624Z,99.90
2023-01-13T11:34:52.009Z,99.90
2023-01-13T11:37:36.064Z,99.90
2023-01-13T11:40:17.063Z,99.90
2023-01-13T11:43:06.410Z,99.90
2023-01-13T11:45:55.794Z,99.90
2023-01-13T11:48:27.436Z,99.90
2023-01-13T11:51:04.622Z,99.90
2023-01-13T11:53:45.075Z,99.90
2023-01-13T11:56:39.583Z,99.90
2023-01-13T11:59:31.423Z,99.90
2023-01-13T12:02:20.148Z,99.90
2023-01-13T12:05:00.727Z,99.90
2023-01-13T12:07:41.407Z,99.90
2023-01-13T12:10:32.870Z,99.90
2023-01-13T12:16:34.021Z,99.90
2023-01-13T12:19:29.770Z,99.90
2023-01-13T12:22:10.687Z,99.90
2023-01-13T12:24:47.676Z,99.90
2023-01-13T12:27:47.161Z,99.90
2023-01-13T12:30:43.961Z,99.90
2023-01-13T12:33:35.552Z,99.90
2023-01-13T12:36:07.168Z,99.90
2023-01-13T12:38:37.833Z,99.90
2023-01-13T12:41:31.365Z,99.90
2023-01-13T12:44:18.664Z,99.90
2023-01-13T12:46:56.497Z,99.90
2023-01-13T12:49:35.361Z,99.90
2023-01-13T12:52:09.761Z,99.90
2023-01-13T12:54:44.283Z,99.90
2023-01-13T12:57:26.748Z,99.90
2023-01-13T13:00:06.978Z,99.90
2023-01-13T13:02:39.618Z,99.90
2023-01-13T13:05:16.939Z,99.90
2023-01-13T13:07:53.920Z,99.90
2023-01-13T13:10:34.738Z,99.90
2023-01-13T13:13:20.893Z,99.90
2023-01-13T13:15:51.604Z,99.90
2023-01-13T13:18:28.000Z,99.90
2023-01-13T13:20:59.774Z,99.90
2023-01-13T13:23:37.212Z,99.90
2023-01-13T13:26:21.011Z,99.90
2023-01-13T13:29:09.608Z,99.90
2023-01-13T13:31:47.007Z,99.90
2023-01-13T13:34:42.213Z,99.90
2023-01-13T13:37:42.182Z,99.90
2023-01-13T13:43:15.991Z,99.90
2023-01-13T13:46:12.152Z,99.90
2023-01-13T13:48:46.256Z,99.90
2023-01-13T13:51:28.057Z,99.90
2023-01-13T13:53:56.845Z,99.90
2023-01-13T13:56:29.750Z,99.90
2023-01-13T13:59:00.759Z,99.90
2023-01-13T14:01:32.939Z,99.90
2023-01-13T14:04:10.330Z,99.90
2023-01-13T14:06:38.125Z,99.90
2023-01-13T14:09:09.550Z,99.90
2023-01-13T14:11:37.457Z,99.90
2023-01-13T14:14:17.215Z,99.90
2023-01-13T14:16:44.996Z,99.90
2023-01-13T14:19:35.577Z,99.90
2023-01-13T14:22:06.387Z,99.90
2023-01-13T14:24:34.055Z,99.90
2023-01-13T14:27:10.881Z,99.90
2023-01-13T14:29:38.537Z,99.90
2023-01-13T14:32:09.216Z,99.90
2023-01-13T14:34:36.673Z,99.90
2023-01-13T14:37:06.832Z,99.90
2023-01-13T14:39:38.951Z,99.90
2023-01-13T14:42:16.301Z,99.90
2023-01-13T14:44:51.505Z,99.90
2023-01-13T14:47:23.464Z,99.90
2023-01-13T14:49:59.911Z,99.90
2023-01-13T14:52:36.750Z,99.90
2023-01-13T14:55:11.111Z,99.90
2023-01-13T14:57:41.811Z,99.90
2023-01-13T15:00:19.534Z,99.90
2023-01-13T15:02:59.843Z,99.90
2023-01-13T15:05:33.673Z,99.90
2023-01-13T15:08:14.497Z,98.90
2023-01-13T15:10:48.489Z,97.10
2023-01-13T15:13:26.349Z,94.50
2023-01-13T15:15:57.299Z,93.90
2023-01-13T15:18:25.420Z,93.90
2023-01-13T15:20:54.802Z,94.40
2023-01-13T15:23:22.475Z,93.90
2023-01-13T15:25:50.270Z,94.30
2023-01-13T15:28:23.509Z,94.30
2023-01-13T15:30:54.964Z,95.00
2023-01-13T15:33:25.768Z,95.10
2023-01-13T15:36:21.260Z,95.40
2023-01-13T15:38:48.977Z,95.80
2023-01-13T15:41:17.275Z,97.20
2023-01-13T15:44:03.490Z,98.90
2023-01-13T15:46:40.393Z,99.90
2023-01-13T15:49:20.823Z,99.90
2023-01-13T15:51:49.841Z,99.90
2023-01-13T15:54:19.450Z,99.90
2023-01-13T15:56:47.533Z,99.90
2023-01-13T15:59:18.735Z,99.90
2023-01-13T16:01:46.861Z,99.90
2023-01-13T16:04:15.581Z,99.90
2023-01-13T16:06:43.813Z,99.90
2023-01-13T16:09:15.188Z,99.90
2023-01-13T16:11:43.631Z,99.90
2023-01-13T16:14:10.839Z,99.90
2023-01-13T16:16:38.546Z,99.90
2023-01-13T16:19:06.076Z,99.90
2023-01-13T16:21:34.170Z,99.90
2023-01-13T16:24:01.949Z,99.90
2023-01-13T16:26:30.528Z,99.90
2023-01-13T16:28:58.572Z,99.90
2023-01-13T16:31:34.575Z,99.90
2023-01-13T16:34:03.427Z,99.90
2023-01-13T16:36:34.642Z,99.90
2023-01-13T16:39:03.656Z,99.90
2023-01-13T16:41:31.180Z,99.90
2023-01-13T16:43:58.806Z,99.90
2023-01-13T16:46:28.948Z,99.90
2023-01-13T16:48:59.628Z,99.90
2023-01-13T16:51:27.404Z,99.90
2023-01-13T16:53:54.909Z,99.90
2023-01-13T16:56:28.630Z,99.90
2023-01-13T16:58:58.900Z,99.90
2023-01-13T17:01:29.076Z,99.90
2023-01-13T17:03:58.213Z,99.90
2023-01-13T17:06:41.432Z,99.90
2023-01-13T17:09:13.016Z,99.90
2023-01-13T17:11:41.149Z,99.90
2023-01-13T17:14:18.587Z,99.90
2023-01-13T17:16:38.795Z,99.90
2023-01-13T17:19:07.209Z,99.90
2023-01-13T17:21:35.383Z,99.90
2023-01-13T17:24:04.499Z,99.90
2023-01-13T17:26:38.491Z,99.90
2023-01-13T17:29:09.225Z,99.90
2023-01-13T17:31:37.182Z,99.90
2023-01-13T17:34:05.846Z,99.90
2023-01-13T17:36:41.288Z,99.90
2023-01-13T17:39:06.385Z,99.90
2023-01-13T17:41:36.090Z,99.90
2023-01-13T17:44:15.677Z,99.90
2023-01-13T17:46:46.234Z,99.90
2023-01-13T17:49:16.144Z,99.90
2023-01-13T17:51:44.949Z,99.90
2023-01-13T17:54:12.775Z,99.90
2023-01-13T17:57:00.231Z,99.90
2023-01-13T17:59:29.131Z,99.90
2023-01-13T18:01:56.621Z,99.90
2023-01-13T18:04:29.158Z,99.90
2023-01-13T18:06:59.881Z,99.90
2023-01-13T18:09:27.609Z,99.90
2023-01-13T18:11:55.272Z,99.90
2023-01-13T18:14:30.399Z,99.90
2023-01-13T18:16:57.928Z,99.90
2023-01-13T18:19:44.431Z,99.90
2023-01-13T18:22:33.209Z,99.90
2023-01-13T18:25:21.826Z,99.90
2023-01-13T18:27:49.591Z,99.90
2023-01-13T18:30:17.167Z,99.90
2023-01-13T18:32:47.528Z,99.90
2023-01-13T18:35:15.019Z,99.90
2023-01-13T18:37:43.251Z,99.90
2023-01-13T18:40:13.266Z,99.90
2023-01-13T18:42:52.043Z,99.90
2023-01-13T18:45:24.447Z,99.90
2023-01-13T18:47:54.259Z,99.90
2023-01-13T18:50:22.716Z,99.90
2023-01-13T18:52:50.740Z,99.90
2023-01-13T18:55:19.163Z,99.90
2023-01-13T18:57:47.082Z,99.90
2023-01-13T19:00:19.261Z,99.90
2023-01-13T19:02:51.744Z,99.90
2023-01-13T19:05:19.756Z,99.90
2023-01-13T19:07:48.941Z,99.90
2023-01-13T19:10:18.013Z,99.90
2023-01-13T19:12:45.621Z,99.90
2023-01-13T19:15:18.627Z,99.90
2023-01-13T19:17:48.959Z,99.90
2023-01-13T19:20:16.879Z,99.90
2023-01-13T19:22:46.057Z,99.90
2023-01-13T19:25:14.318Z,99.90
2023-01-13T19:27:43.889Z,99.90
2023-01-13T19:30:12.837Z,99.90
2023-01-13T19:32:40.940Z,99.90
2023-01-13T19:35:13.312Z,99.90
2023-01-13T19:37:41.393Z,99.90
2023-01-13T19:40:11.143Z,99.90
2023-01-13T19:43:00.051Z,99.90
2023-01-13T19:45:29.418Z,99.90
2023-01-13T19:47:58.542Z,99.90
2023-01-13T19:50:26.319Z,99.90
2023-01-13T19:52:54.672Z,99.90
2023-01-13T19:55:22.453Z,99.90
2023-01-13T19:57:50.093Z,99.90
2023-01-13T20:00:20.924Z,99.90
2023-01-13T20:02:49.969Z,99.90
2023-01-13T20:05:21.566Z,99.90
2023-01-13T20:08:02.583Z,99.90
2023-01-13T20:10:33.214Z,99.90
2023-01-13T20:13:00.813Z,99.90
2023-01-13T20:15:28.847Z,99.90
2023-01-13T20:17:58.381Z,99.90
2023-01-13T20:20:27.068Z,99.90
2023-01-13T20:22:57.936Z,99.90
2023-01-13T20:25:29.842Z,99.90
2023-01-13T20:27:59.076Z,99.90
2023-01-13T20:30:27.011Z,99.90
2023-01-13T20:32:54.556Z,99.90
2023-01-13T20:35:22.759Z,99.90
2023-01-13T20:37:50.405Z,99.90
2023-01-13T20:40:22.568Z,99.90
2023-01-13T20:43:10.616Z,99.90
2023-01-13T20:45:39.999Z,99.90
2023-01-13T20:48:07.692Z,99.90
2023-01-13T20:50:35.179Z,99.90
2023-01-13T20:53:02.919Z,99.90
2023-01-13T20:55:30.426Z,99.90
2023-01-13T20:57:58.857Z,99.90
2023-01-13T21:00:28.511Z,99.90
2023-01-13T21:02:59.501Z,99.90
2023-01-13T21:05:28.271Z,99.90
2023-01-13T21:07:56.069Z,99.90
2023-01-13T21:10:24.414Z,99.90
2023-01-13T21:13:13.886Z,99.90
2023-01-13T21:15:52.185Z,99.90
2023-01-13T21:18:37.979Z,99.90
2023-01-13T21:21:12.393Z,99.90
2023-01-13T21:23:43.052Z,99.90
2023-01-13T21:26:11.813Z,99.90
2023-01-13T21:28:39.925Z,99.90
2023-01-13T21:31:18.086Z,99.90
2023-01-13T21:33:49.054Z,99.90
2023-01-13T21:36:28.976Z,99.90
2023-01-13T21:38:58.831Z,99.90
2023-01-13T21:41:35.071Z,99.90
2023-01-13T21:44:21.751Z,99.90
2023-01-13T21:49:45.146Z,99.90
2023-01-13T21:52:13.864Z,99.90
2023-01-13T21:54:43.691Z,99.90
2023-01-13T21:57:11.824Z,99.90
2023-01-13T21:59:40.179Z,99.90
2023-01-13T22:02:24.011Z,99.90
2023-01-13T22:04:40.626Z,99.90
2023-01-13T22:07:08.156Z,99.90
2023-01-13T22:09:35.633Z,99.90
2023-01-13T22:12:03.084Z,99.90
2023-01-13T22:14:31.135Z,99.90
2023-01-13T22:17:00.569Z,99.90
2023-01-13T22:19:28.826Z,99.90
2023-01-13T22:22:18.808Z,99.90
2023-01-13T22:24:49.633Z,99.90
2023-01-13T22:27:22.872Z,99.90
2023-01-13T22:29:52.028Z,99.90
2023-01-13T22:32:22.495Z,99.90
2023-01-13T22:34:50.631Z,99.90
2023-01-13T22:37:19.656Z,99.90
2023-01-13T22:39:47.465Z,99.90
2023-01-13T22:42:15.310Z,99.90
2023-01-13T22:44:44.025Z,99.90
2023-01-13T22:47:11.781Z,99.90
2023-01-13T22:49:39.876Z,99.90
2023-01-13T22:52:07.713Z,99.90
2023-01-13T22:54:36.464Z,99.90
2023-01-13T22:57:04.662Z,99.90
2023-01-13T22:59:32.765Z,99.90
2023-01-13T23:02:00.900Z,99.90
2023-01-13T23:04:48.551Z,99.90
2023-01-13T23:07:16.710Z,99.90
2023-01-13T23:09:44.563Z,99.90
2023-01-13T23:12:12.444Z,99.90
2023-01-13T23:14:42.382Z,99.90
2023-01-13T23:17:09.917Z,99.90
2023-01-13T23:19:37.454Z,99.90
2023-01-13T23:22:06.177Z,99.90
2023-01-13T23:24:33.773Z,99.90
2023-01-13T23:27:01.895Z,99.90
2023-01-13T23:29:30.018Z,99.90
2023-01-13T23:31:57.418Z,99.90
2023-01-13T23:34:25.724Z,99.90
2023-01-13T23:36:54.002Z,99.90
2023-01-13T23:39:23.384Z,99.90
2023-01-13T23:41:54.575Z,99.90
2023-01-13T23:44:23.260Z,99.90
2023-01-13T23:46:50.631Z,99.90
2023-01-13T23:49:18.523Z,99.90
2023-01-13T23:51:46.347Z,99.90
2023-01-13T23:54:27.656Z,99.90
2023-01-13T23:56:55.741Z,99.90
2023-01-13T23:59:23.855Z,99.90
